Time;durP1;ratioP1;P1;durP2;ratioP2;P2;SDS_P1;SDS_P2;PMS_P1;PMS_P2;Temp;Humidity;BMP_temperature;BMP_pressure;BME280_temperature;BME280_humidity;BME280_pressure;Samples;Min_cycle;Max_cycle;Signal;HPM_P1;HPM_P2
2023/07/15 00:03:05;;;;;;;5.93;3.30;;;21.20;93.40;;;20.19;83.94;100191.44;12366935;23;96405;-85
2023/07/15 00:08:08;;;;;;;7.93;3.67;;;21.20;93.60;;;20.12;83.86;100188.84;12343794;23;97607;-85
2023/07/15 00:13:16;;;;;;;3.78;3.05;;;21.10;93.80;;;20.12;83.74;100190.72;12342203;23;96873;-85
2023/07/15 00:18:21;;;;;;;5.72;3.30;;;21.10;93.90;;;20.09;83.78;100185.75;12340787;23;96845;-85
2023/07/15 00:23:26;;;;;;;6.60;4.20;;;21.10;94.10;;;20.00;84.43;100180.72;12343174;23;96459;-85
2023/07/15 00:28:30;;;;;;;3.10;2.80;;;21.00;94.40;;;19.98;84.56;100184.69;12343048;23;96555;-85
2023/07/15 00:33:33;;;;;;;3.42;3.13;;;21.00;94.60;;;19.96;84.66;100187.59;12318437;23;97285;-85
2023/07/15 00:38:37;;;;;;;5.03;3.03;;;21.00;94.80;;;19.95;85.29;100183.28;12342525;23;96479;-85
2023/07/15 00:43:54;;;;;;;3.65;3.00;;;21.00;94.90;;;19.95;86.32;100182.44;12342355;23;96548;-85
2023/07/15 00:49:14;;;;;;;5.22;2.70;;;21.00;95.30;;;19.90;86.41;100177.75;12341301;23;96394;-84
2023/07/15 00:54:18;;;;;;;4.28;3.10;;;20.90;95.40;;;19.80;86.24;100168.56;12343983;23;96411;-85
2023/07/15 00:59:24;;;;;;;4.72;2.90;;;20.80;95.60;;;19.70;87.11;100175.31;12339014;23;97401;-85
2023/07/15 01:04:27;;;;;;;4.97;2.90;;;20.70;95.90;;;19.63;87.74;100176.47;12338459;23;97172;-84
2023/07/15 01:09:31;;;;;;;4.22;3.20;;;20.70;96.30;;;19.55;88.52;100174.84;12365970;23;96461;-85
2023/07/15 01:14:36;;;;;;;3.60;2.85;;;20.60;96.70;;;19.46;88.96;100168.97;12340525;23;96605;-84
2023/07/15 01:19:40;;;;;;;7.22;3.40;;;20.50;97.00;;;19.39;90.19;100170.94;12337042;23;96929;-84
2023/07/15 01:24:45;;;;;;;6.80;3.35;;;20.40;97.40;;;19.31;90.54;100165.88;12342959;23;96592;-85
2023/07/15 01:29:48;;;;;;;3.47;3.10;;;20.30;97.70;;;19.18;91.75;100172.19;12341501;23;97065;-85
2023/07/15 01:34:52;;;;;;;5.13;3.47;;;20.20;98.10;;;19.11;92.49;100168.78;12366323;23;97032;-84
2023/07/15 01:39:56;;;;;;;6.40;3.25;;;20.10;98.50;;;19.05;92.76;100163.47;12366402;23;96445;-84
2023/07/15 01:45:00;;;;;;;5.35;3.67;;;20.00;98.80;;;18.96;92.58;100161.06;12342823;23;96546;-85
2023/07/15 01:50:06;;;;;;;7.25;2.97;;;19.90;99.00;;;18.91;92.96;100171.69;12344134;23;96653;-84
2023/07/15 01:55:10;;;;;;;4.35;3.42;;;19.90;99.30;;;18.88;92.98;100173.97;12321889;23;96436;-84
2023/07/15 02:00:16;;;;;;;4.55;3.50;;;19.90;99.60;;;18.87;93.25;100175.03;12342524;23;96947;-84
2023/07/15 02:05:20;;;;;;;6.10;3.90;;;19.90;99.80;;;18.82;93.61;100173.00;12344516;23;96652;-84
2023/07/15 02:10:23;;;;;;;4.75;3.83;;;19.80;99.90;;;18.75;94.09;100185.72;12343751;23;96727;-84
2023/07/15 02:15:28;;;;;;;5.00;4.30;;;19.80;99.90;;;18.66;94.88;100185.16;12343618;23;96778;-84
2023/07/15 02:20:31;;;;;;;5.40;4.10;;;19.70;99.90;;;18.57;95.83;100172.19;12344358;23;96536;-84
2023/07/15 02:25:35;;;;;;;5.30;3.83;;;19.60;99.90;;;18.49;96.63;100181.38;12344124;23;96315;-84
2023/07/15 02:30:39;;;;;;;5.00;4.22;;;19.50;99.90;;;18.42;97.28;100184.13;12342734;23;96849;-84
2023/07/15 02:35:43;;;;;;;4.57;4.05;;;19.40;99.90;;;18.38;97.16;100179.38;12371067;23;96471;-84
2023/07/15 02:40:48;;;;;;;4.88;3.75;;;19.40;99.90;;;18.31;98.09;100187.50;12344467;23;96575;-85
2023/07/15 02:45:52;;;;;;;5.40;4.50;;;19.30;99.90;;;18.30;98.56;100185.88;12342637;23;96621;-84
2023/07/15 02:50:56;;;;;;;5.93;4.68;;;19.30;99.90;;;18.29;99.10;100191.44;12342653;23;96518;-85
2023/07/15 02:56:00;;;;;;;4.95;4.15;;;19.30;99.90;;;18.28;98.98;100187.13;12343374;23;96597;-84
2023/07/15 03:01:04;;;;;;;5.30;4.47;;;19.30;99.90;;;18.24;99.36;100186.75;12343325;23;96497;-85
2023/07/15 03:06:09;;;;;;;5.45;4.50;;;19.30;99.90;;;18.20;99.84;100185.53;12319944;23;96766;-84
2023/07/15 03:11:12;;;;;;;4.75;4.10;;;19.20;99.90;;;18.17;99.93;100183.25;12347609;23;96582;-84
2023/07/15 03:16:21;;;;;;;4.63;4.10;;;19.20;99.90;;;18.14;100.00;100186.38;12319588;23;96855;-84
2023/07/15 03:21:24;;;;;;;5.13;4.10;;;19.20;99.90;;;18.13;100.00;100192.81;12343768;23;96503;-85
2023/07/15 03:26:28;;;;;;;5.40;4.50;;;19.20;99.90;;;18.12;100.00;100193.88;12369361;23;96787;-84
2023/07/15 03:31:32;;;;;;;4.53;4.07;;;19.20;99.90;;;18.11;100.00;100192.19;12367579;23;96494;-84
2023/07/15 03:36:36;;;;;;;5.65;4.53;;;19.20;99.90;;;18.13;100.00;100200.88;12343716;23;96784;-85
2023/07/15 03:41:39;;;;;;;5.47;4.45;;;19.10;99.90;;;18.10;100.00;100202.13;12341891;23;96447;-84
2023/07/15 03:46:43;;;;;;;7.70;4.45;;;19.10;99.90;;;18.14;100.00;100200.66;12365598;23;96717;-84
2023/07/15 03:51:47;;;;;;;7.22;4.50;;;19.20;99.90;;;18.25;100.00;100192.94;12342969;23;96686;-84
2023/07/15 03:56:50;;;;;;;7.13;4.53;;;19.30;99.90;;;18.39;100.00;100194.47;12343358;23;96757;-84
2023/07/15 04:01:54;;;;;;;5.13;4.53;;;19.40;99.90;;;18.56;100.00;100202.84;12342603;23;96571;-85
2023/07/15 04:06:59;;;;;;;4.68;4.05;;;19.50;99.90;;;18.73;100.00;100190.50;12367223;23;97324;-84
2023/07/15 04:12:06;;;;;;;6.35;4.30;;;19.70;99.90;;;18.91;100.00;100190.53;12320131;23;96717;-84
2023/07/15 04:17:09;;;;;;;5.10;4.40;;;19.90;99.90;;;19.09;99.66;100183.53;12343308;23;96614;-84
2023/07/15 04:22:20;;;;;;;5.43;4.00;;;20.10;99.90;;;19.22;97.70;100172.59;12340570;23;96508;-84
2023/07/15 04:27:29;;;;;;;4.95;4.40;;;20.30;99.90;;;19.39;94.91;100181.72;12300622;23;96449;-84
2023/07/15 04:32:34;;;;;;;6.70;4.22;;;20.40;99.90;;;19.52;94.06;100191.50;12341059;23;96570;-84
2023/07/15 04:37:40;;;;;;;4.72;4.18;;;20.50;99.90;;;19.67;92.67;100188.44;12341665;23;96645;-84
2023/07/15 04:42:43;;;;;;;6.13;3.83;;;20.70;99.90;;;19.78;91.06;100193.88;12365524;23;97044;-84
2023/07/15 04:47:49;;;;;;;5.78;3.70;;;20.80;99.90;;;19.91;89.93;100208.22;12342943;23;96792;-84
2023/07/15 04:52:52;;;;;;;6.00;4.03;;;20.90;99.90;;;19.96;87.66;100206.50;12319917;23;96695;-84
2023/07/15 04:57:56;;;;;;;4.72;3.85;;;21.00;99.90;;;20.04;87.17;100208.06;12340264;23;96396;-85
2023/07/15 05:03:01;;;;;;;4.90;3.60;;;21.00;99.90;;;20.15;86.49;100204.59;12316934;23;96868;-85
2023/07/15 05:08:17;;;;;;;5.32;4.45;;;21.10;99.90;;;20.24;86.25;100218.53;12341422;23;96479;-84
2023/07/15 05:13:21;;;;;;;5.30;3.33;;;21.20;99.90;;;20.39;85.45;100204.59;12341781;23;96542;-84
2023/07/15 05:18:25;;;;;;;4.85;3.30;;;21.30;99.90;;;20.60;85.19;100222.16;12316899;23;96904;-84
2023/07/15 05:23:31;;;;;;;8.40;3.40;;;21.50;99.90;;;20.80;84.89;100217.25;12368025;23;97421;-84
2023/07/15 05:28:35;;;;;;;5.38;4.03;;;21.80;99.90;;;21.00;84.21;100211.50;12343017;23;96721;-84
2023/07/15 05:33:38;;;;;;;4.50;3.60;;;22.00;99.90;;;21.21;83.09;100218.16;12342355;23;97331;-84
2023/07/15 05:38:43;;;;;;;5.40;3.60;;;22.20;99.90;;;21.43;81.08;100216.53;12368736;23;96407;-84
2023/07/15 05:43:47;;;;;;;4.28;3.50;;;22.40;99.70;;;21.65;79.46;100227.50;12342889;23;96528;-84
2023/07/15 05:48:50;;;;;;;4.22;3.30;;;22.60;99.20;;;21.81;78.03;100228.63;12343565;23;96512;-84
2023/07/15 05:53:54;;;;;;;8.55;3.95;;;22.80;98.80;;;21.92;75.71;100216.94;12344918;23;96485;-84
2023/07/15 05:58:58;;;;;;;10.80;3.90;;;22.90;97.90;;;22.06;75.16;100226.41;12345268;23;96413;-84
2023/07/15 06:04:03;;;;;;;5.55;3.20;;;23.10;97.70;;;22.22;75.43;100216.72;12343894;23;96975;-83
2023/07/15 06:09:07;;;;;;;4.50;3.28;;;23.20;97.50;;;22.42;73.89;100221.63;12344366;23;96946;-83
2023/07/15 06:14:11;;;;;;;4.78;3.92;;;23.40;97.10;;;22.65;72.24;100228.78;12342963;23;96546;-83
2023/07/15 06:19:14;;;;;;;8.75;3.72;;;23.60;96.40;;;22.84;71.17;100232.06;12367470;23;96636;-83
2023/07/15 06:24:18;;;;;;;4.93;3.05;;;23.80;95.70;;;23.02;70.21;100231.81;12320338;23;96472;-83
2023/07/15 06:29:24;;;;;;;6.93;3.55;;;24.00;95.30;;;23.21;68.24;100229.66;12339584;23;96506;-84
2023/07/15 06:34:28;;;;;;;5.85;4.30;;;24.20;94.80;;;23.38;68.29;100229.59;12365986;23;96901;-84
2023/07/15 06:39:31;;;;;;;4.80;3.70;;;24.40;94.50;;;23.50;67.58;100231.13;12365344;23;96948;-83
2023/07/15 06:44:35;;;;;;;5.70;3.63;;;24.50;94.00;;;23.66;66.79;100236.78;12340629;23;96551;-83
2023/07/15 06:49:39;;;;;;;6.80;3.88;;;24.70;93.70;;;23.84;66.13;100233.72;12344887;23;97353;-83
2023/07/15 06:54:42;;;;;;;5.40;3.67;;;24.90;93.30;;;24.06;65.07;100235.59;12343512;23;96528;-83
2023/07/15 06:59:47;;;;;;;5.75;3.63;;;25.10;92.90;;;24.18;64.72;100231.66;12343576;23;96396;-83
2023/07/15 07:04:51;;;;;;;7.07;3.80;;;25.20;92.50;;;24.29;64.15;100232.56;12341458;23;96881;-83
2023/07/15 07:09:54;;;;;;;7.43;3.50;;;25.40;92.20;;;24.42;64.11;100234.06;12320834;23;96475;-83
2023/07/15 07:14:58;;;;;;;7.43;3.63;;;25.50;91.90;;;24.60;63.71;100238.31;12368077;23;96584;-83
2023/07/15 07:20:03;;;;;;;5.53;3.40;;;25.60;91.50;;;24.77;63.12;100228.94;12341534;23;96596;-83
2023/07/15 07:25:08;;;;;;;6.00;3.38;;;25.80;91.30;;;24.96;61.75;100231.22;12343182;23;96704;-83
2023/07/15 07:30:12;;;;;;;5.75;3.60;;;26.00;90.90;;;25.08;61.96;100229.97;12367612;23;96460;-83
2023/07/15 07:35:17;;;;;;;7.25;3.70;;;26.20;90.80;;;25.26;61.33;100225.19;12366752;23;96430;-83
2023/07/15 07:40:20;;;;;;;3.75;3.15;;;26.30;90.80;;;25.45;61.97;100228.25;12344454;23;96789;-83
2023/07/15 07:45:24;;;;;;;4.28;3.03;;;26.50;90.60;;;25.64;60.74;100223.97;12373029;23;96892;-83
2023/07/15 07:50:27;;;;;;;5.93;3.20;;;26.70;90.40;;;25.88;61.08;100222.44;12343280;23;96529;-83
2023/07/15 07:55:31;;;;;;;7.15;3.38;;;26.90;90.10;;;26.07;59.45;100213.78;12341925;23;97079;-83
2023/07/15 08:00:35;;;;;;;4.05;3.42;;;27.20;89.50;;;26.20;58.94;100215.16;12367543;23;96419;-83
2023/07/15 08:05:46;;;;;;;4.95;3.22;;;27.30;88.50;;;26.39;58.46;100198.00;12367898;23;96935;-83
2023/07/15 08:10:50;;;;;;;7.90;3.22;;;27.50;88.30;;;26.62;58.66;100206.72;12343480;23;96564;-84
2023/07/15 08:15:54;;;;;;;5.55;3.58;;;27.60;87.70;;;26.78;57.80;100204.81;12362511;23;96536;-83
2023/07/15 08:20:58;;;;;;;6.13;3.42;;;27.80;86.50;;;26.95;57.14;100202.59;12340622;23;96905;-83
2023/07/15 08:26:01;;;;;;;4.95;3.80;;;28.00;85.90;;;27.05;56.51;100208.06;12366471;23;96846;-84
2023/07/15 08:31:05;;;;;;;4.70;3.67;;;28.10;85.60;;;27.21;56.39;100201.47;12364958;23;96483;-83
2023/07/15 08:36:09;;;;;;;5.13;3.20;;;28.20;84.80;;;27.39;56.78;100204.69;12340338;23;97234;-83
2023/07/15 08:41:14;;;;;;;5.82;3.25;;;28.40;85.10;;;27.52;55.97;100200.53;12340780;23;96522;-84
2023/07/15 08:46:25;;;;;;;6.32;3.30;;;28.50;84.90;;;27.75;55.25;100197.16;12317657;23;96623;-83
2023/07/15 08:51:34;;;;;;;5.55;3.35;;;28.60;84.20;;;27.94;54.55;100200.06;12370348;23;96918;-83
2023/07/15 08:56:39;;;;;;;4.20;3.20;;;28.80;82.90;;;28.09;53.57;100201.88;12366489;23;96330;-83
2023/07/15 09:01:44;;;;;;;3.92;3.33;;;29.00;81.90;;;28.21;52.55;100199.59;12342376;23;97086;-83
2023/07/15 09:06:50;;;;;;;5.40;2.60;;;29.20;81.10;;;28.48;52.95;100196.41;12344916;23;96497;-82
2023/07/15 09:11:53;;;;;;;5.55;2.92;;;29.30;80.90;;;28.69;52.11;100195.13;12344829;23;97062;-84
2023/07/15 09:17:01;;;;;;;4.50;2.78;;;29.70;80.40;;;28.92;51.72;100193.56;12370335;23;96531;-84
2023/07/15 09:22:08;;;;;;;4.20;2.70;;;29.90;79.30;;;29.17;50.36;100197.13;12349823;23;96943;-84
2023/07/15 09:27:12;;;;;;;4.97;2.60;;;30.10;78.40;;;29.45;51.18;100201.69;12344867;23;96446;-84
2023/07/15 09:32:22;;;;;;;4.53;2.88;;;30.40;78.30;;;29.70;49.37;100197.03;12366506;23;96741;-84
2023/07/15 09:37:30;;;;;;;5.13;3.33;;;30.70;76.90;;;29.86;47.05;100192.94;12366105;23;97066;-83
2023/07/15 09:42:54;;;;;;;7.00;3.25;;;30.80;75.10;;;29.97;47.68;100188.94;12320757;23;96725;-84
2023/07/15 09:47:59;;;;;;;3.50;2.45;;;31.00;74.60;;;30.02;46.61;100185.31;12343056;23;96879;-83
2023/07/15 09:53:05;;;;;;;2.75;2.00;;;31.00;73.00;;;29.88;46.58;100182.53;12344845;23;96893;-84
2023/07/15 09:58:25;;;;;;;3.80;2.22;;;31.00;72.70;;;29.87;45.56;100169.94;12342756;23;96708;-83
2023/07/15 10:03:51;;;;;;;3.42;2.53;;;30.90;72.00;;;29.99;46.47;100170.31;12342970;23;97145;-84
2023/07/15 10:08:57;;;;;;;6.95;3.20;;;31.00;72.10;;;29.99;47.69;100164.81;12343643;23;96905;-83
2023/07/15 10:14:04;;;;;;;3.67;2.00;;;31.00;72.70;;;29.90;48.36;100161.13;12346096;23;96737;-83
2023/07/15 10:19:49;;;;;;;2.95;2.50;;;30.90;73.40;;;30.13;47.73;100164.91;12344271;23;96813;-83
2023/07/15 10:24:56;;;;;;;8.43;2.55;;;31.10;73.70;;;30.43;47.41;100162.75;12367989;23;96718;-84
2023/07/15 10:30:23;;;;;;;2.28;1.70;;;31.40;73.20;;;30.66;44.16;100153.56;12342388;23;96782;-84
2023/07/15 10:35:29;;;;;;;5.40;2.53;;;31.70;68.80;;;30.65;44.81;100150.00;12366228;23;96535;-83
2023/07/15 10:40:48;;;;;;;3.78;1.80;;;31.60;69.70;;;30.65;42.78;100152.75;12342656;23;96553;-83
2023/07/15 10:45:54;;;;;;;2.72;2.08;;;31.60;67.40;;;30.63;44.23;100163.19;12365746;23;96814;-83
2023/07/15 10:51:09;;;;;;;3.05;2.13;;;31.60;68.20;;;30.91;43.19;100153.09;12344203;23;96455;-83
2023/07/15 10:56:13;;;;;;;2.25;2.03;;;31.90;67.10;;;31.17;43.82;100153.41;12343956;23;96517;-83
2023/07/15 11:01:17;;;;;;;3.35;2.20;;;32.20;68.20;;;31.11;42.98;100151.88;12365562;23;96656;-83
2023/07/15 11:06:25;;;;;;;3.58;2.55;;;32.20;66.60;;;31.00;43.19;100144.97;12345066;23;96432;-83
2023/07/15 11:11:29;;;;;;;;;;;32.10;66.80;;;31.10;44.96;100135.72;12342081;23;96789;-82
2023/07/15 11:16:36;;;;;;;2.95;2.42;;;32.00;68.60;;;31.21;43.38;100136.34;12366769;23;96486;-83
2023/07/15 11:21:40;;;;;;;2.97;2.63;;;32.20;67.10;;;31.01;44.25;100127.41;12365584;23;96404;-83
2023/07/15 11:26:44;;;;;;;4.20;2.70;;;32.00;67.20;;;31.05;44.32;100128.41;12368431;23;96496;-83
2023/07/15 11:31:50;;;;;;;5.00;2.45;;;32.00;67.80;;;31.38;43.82;100131.06;12343310;23;96737;-83
2023/07/15 11:36:55;;;;;;;5.60;2.80;;;32.30;67.10;;;31.70;42.98;100119.88;12342291;23;96893;-83
2023/07/15 11:41:59;;;;;;;2.70;2.03;;;32.60;66.40;;;31.76;42.51;100112.31;12342533;23;96536;-83
2023/07/15 11:47:05;;;;;;;2.75;1.92;;;32.80;65.90;;;31.95;42.58;100112.97;12318755;23;96737;-83
2023/07/15 11:52:20;;;;;;;2.60;2.15;;;33.00;66.20;;;32.04;42.31;100104.81;12341899;23;96768;-83
2023/07/15 11:57:28;;;;;;;3.05;2.30;;;33.10;65.00;;;31.92;41.76;100099.06;12343363;23;97179;-83
2023/07/15 12:02:31;;;;;;;3.25;2.05;;;33.10;65.50;;;31.80;42.90;100096.06;12343199;23;96692;-82
2023/07/15 12:07:35;;;;;;;4.47;2.15;;;32.90;65.20;;;31.65;41.91;100100.75;12366479;23;96455;-83
2023/07/15 12:12:39;;;;;;;3.40;2.50;;;32.70;64.80;;;31.76;42.78;100093.09;12367131;23;97246;-83
2023/07/15 12:17:44;;;;;;;3.75;1.90;;;32.70;64.70;;;31.95;42.28;100090.97;12367374;23;96748;-82
2023/07/15 12:22:47;;;;;;;5.38;2.30;;;33.00;64.50;;;32.19;41.27;100087.91;12343384;23;96836;-82
2023/07/15 12:27:51;;;;;;;4.82;2.30;;;33.30;63.30;;;32.49;41.38;100075.31;12319572;23;96517;-83
2023/07/15 12:32:55;;;;;;;4.20;2.38;;;33.80;63.00;;;32.68;40.09;100079.75;12342450;23;96754;-83
2023/07/15 12:37:58;;;;;;;3.08;2.38;;;34.00;61.80;;;32.82;40.49;100077.69;12342431;23;96513;-83
2023/07/15 12:43:02;;;;;;;3.40;2.10;;;34.10;62.10;;;33.11;39.18;100073.56;12366819;23;96427;-83
2023/07/15 12:48:06;;;;;;;2.80;2.00;;;34.50;61.40;;;33.20;38.15;100066.97;12367701;23;96454;-83
2023/07/15 12:53:10;;;;;;;2.53;2.10;;;34.60;59.90;;;33.27;38.61;100053.50;12342736;23;96621;-83
2023/07/15 12:58:16;;;;;;;3.55;2.40;;;34.60;60.10;;;33.45;38.59;100057.13;12366882;23;96483;-82
2023/07/15 13:03:19;;;;;;;3.28;2.33;;;34.90;59.50;;;33.77;37.83;100041.22;12338819;23;96840;-83
2023/07/15 13:08:23;;;;;;;6.53;2.00;;;35.30;58.80;;;34.17;37.80;100049.25;12364560;23;96627;-82
2023/07/15 13:13:27;;;;;;;2.03;1.73;;;36.00;58.50;;;34.52;35.53;100038.94;12342107;23;96853;-83
2023/07/15 13:18:31;;;;;;;2.58;1.98;;;36.70;56.60;;;34.92;35.28;100039.34;12366823;23;96407;-83
2023/07/15 13:23:34;;;;;;;2.78;1.90;;;37.30;55.70;;;35.22;34.34;100034.63;12366596;23;96523;-82
2023/07/15 13:28:38;;;;;;;3.63;1.98;;;37.60;54.40;;;35.91;33.91;100033.19;12340975;23;96554;-83
2023/07/15 13:33:41;;;;;;;4.05;2.10;;;37.90;54.00;;;36.44;32.94;100029.53;12340252;23;97044;-83
2023/07/15 13:38:46;;;;;;;2.22;1.80;;;38.30;53.70;;;36.76;32.46;100028.94;12342678;23;96613;-83
2023/07/15 13:43:50;;;;;;;6.72;2.20;;;38.30;53.60;;;36.96;31.94;100028.84;12365972;23;96815;-83
2023/07/15 13:48:54;;;;;;;4.70;1.88;;;38.10;53.50;;;37.17;31.93;100025.09;12341837;23;97016;-83
2023/07/15 13:53:57;;;;;;;4.22;2.15;;;37.90;53.70;;;36.98;31.34;100025.72;12340413;23;96883;-83
2023/07/15 13:59:01;;;;;;;5.25;2.50;;;37.60;52.90;;;36.56;31.73;100020.41;12343594;23;96490;-84
2023/07/15 14:04:04;;;;;;;2.70;2.30;;;37.20;52.80;;;36.09;32.35;100015.28;12342431;23;96562;-83
2023/07/15 14:09:10;;;;;;;4.18;2.47;;;36.80;53.50;;;35.65;33.08;100022.41;12368141;23;96679;-83
2023/07/15 14:14:16;;;;;;;5.90;2.70;;;36.40;53.80;;;35.39;33.72;100015.16;12338661;23;96770;-83
2023/07/15 14:19:19;;;;;;;4.75;2.63;;;36.30;54.90;;;35.22;33.11;100004.25;12338073;23;96861;-83
2023/07/15 14:24:23;;;;;;;2.97;2.58;;;36.20;53.80;;;35.08;34.01;100007.25;12343110;23;96950;-83
2023/07/15 14:29:27;;;;;;;3.90;2.63;;;36.10;54.10;;;34.79;33.92;100005.34;12367491;23;96971;-82
2023/07/15 14:34:30;;;;;;;5.50;2.70;;;36.00;54.10;;;34.19;35.11;100011.97;12365613;23;96717;-83
2023/07/15 14:39:34;;;;;;;3.28;2.90;;;35.40;54.20;;;33.86;35.59;100013.63;12366514;23;96562;-83
2023/07/15 14:44:38;;;;;;;4.43;2.95;;;35.10;54.50;;;33.78;35.24;100004.25;12366711;23;96724;-82
2023/07/15 14:49:41;;;;;;;6.10;2.75;;;35.20;54.60;;;33.74;35.30;99998.59;12343585;23;96470;-82
2023/07/15 14:54:45;;;;;;;3.38;2.80;;;35.20;54.50;;;33.73;35.81;99994.22;12319377;23;96511;-82
2023/07/15 14:59:48;;;;;;;4.88;3.50;;;35.30;54.70;;;33.90;36.04;99989.81;12367120;23;96384;-83
2023/07/15 15:04:52;;;;;;;5.85;3.30;;;35.40;55.00;;;34.37;34.74;99984.28;12341638;23;96743;-83
2023/07/15 15:09:56;;;;;;;5.20;3.30;;;36.00;54.00;;;35.10;34.20;99974.63;12343938;23;96470;-83
2023/07/15 15:14:59;;;;;;;3.90;3.10;;;36.60;53.50;;;35.73;32.03;99963.47;12368041;23;96583;-82
2023/07/15 15:20:05;;;;;;;4.60;3.28;;;37.30;52.40;;;35.99;32.29;99967.91;12344228;23;96343;-83
2023/07/15 15:25:08;;;;;;;5.63;3.38;;;37.60;52.10;;;36.02;32.48;99970.81;12367603;23;97166;-83
2023/07/15 15:30:12;;;;;;;5.07;3.40;;;37.70;51.90;;;36.03;32.25;99963.31;12342848;23;96613;-83
2023/07/15 15:35:17;;;;;;;6.43;3.50;;;37.70;51.40;;;36.28;32.01;99973.22;12319289;23;96824;-83
2023/07/15 15:40:21;;;;;;;5.75;3.30;;;37.90;51.40;;;36.65;31.21;99968.53;12368047;23;96362;-83
2023/07/15 15:45:25;;;;;;;4.63;3.88;;;38.30;51.10;;;36.57;31.15;99968.63;12365597;23;96434;-83
2023/07/15 15:50:29;;;;;;;5.30;3.95;;;38.30;50.80;;;36.75;30.54;99956.16;12365574;23;96802;-83
2023/07/15 15:55:32;;;;;;;5.70;3.53;;;38.30;50.30;;;36.65;30.48;99953.88;12341809;23;97029;-83
2023/07/15 16:00:36;;;;;;;4.80;3.60;;;38.30;50.20;;;36.53;30.49;99951.94;12342598;23;96433;-84
2023/07/15 16:05:43;;;;;;;4.18;3.78;;;38.30;49.70;;;36.22;31.25;99955.25;12343207;23;96818;-83
2023/07/15 16:10:47;;;;;;;4.75;4.35;;;37.80;50.20;;;35.88;31.64;99953.72;12368376;23;96489;-83
2023/07/15 16:15:51;;;;;;;4.47;4.00;;;37.50;50.50;;;35.54;32.36;99946.59;12367460;23;96786;-83
2023/07/15 16:20:54;;;;;;;5.63;4.03;;;36.80;51.60;;;35.57;32.86;99951.47;12343424;23;96475;-83
2023/07/15 16:25:58;;;;;;;7.05;4.28;;;36.60;51.80;;;35.44;33.08;99952.56;12365098;23;96707;-84
2023/07/15 16:31:02;;;;;;;4.53;3.90;;;36.40;51.90;;;35.16;34.25;99946.81;12341300;23;96859;-83
2023/07/15 16:36:05;;;;;;;4.95;4.55;;;36.20;52.60;;;34.97;33.31;99944.53;12344026;23;96559;-83
2023/07/15 16:41:09;;;;;;;4.90;4.15;;;36.00;52.60;;;34.74;33.51;99950.34;12297977;23;97096;-83
2023/07/15 16:46:12;;;;;;;5.32;4.80;;;35.90;52.00;;;34.56;33.00;99946.88;12343171;23;96444;-83
2023/07/15 16:51:16;;;;;;;5.75;4.20;;;35.70;52.00;;;34.37;33.91;99951.16;12341926;23;96704;-82
2023/07/15 16:56:20;;;;;;;5.28;4.40;;;35.40;52.40;;;34.14;34.75;99950.66;12341812;23;96414;-82
2023/07/15 17:01:23;;;;;;;5.10;4.60;;;35.20;53.10;;;33.74;35.81;99945.41;12368414;23;97388;-83
2023/07/15 17:06:29;;;;;;;4.85;4.43;;;35.10;53.90;;;33.38;37.04;99946.59;12342476;23;96377;-83
2023/07/15 17:11:33;;;;;;;5.32;4.45;;;34.70;54.60;;;33.09;37.46;99955.53;12364585;23;96405;-83
2023/07/15 17:16:36;;;;;;;6.07;4.65;;;34.40;55.00;;;32.70;38.40;99956.44;12366788;23;96361;-83
2023/07/15 17:21:40;;;;;;;5.50;5.00;;;33.90;55.60;;;32.40;38.83;99955.41;12368230;23;96367;-83
2023/07/15 17:26:44;;;;;;;5.93;5.22;;;33.50;56.60;;;32.03;40.13;99962.19;12321932;23;97168;-82
2023/07/15 17:31:48;;;;;;;6.35;5.53;;;33.10;57.30;;;31.73;41.05;99961.03;12342626;23;96623;-83
2023/07/15 17:36:51;;;;;;;6.18;5.20;;;32.80;58.10;;;31.41;41.83;99963.75;12344895;23;96455;-86
2023/07/15 17:41:56;;;;;;;7.22;5.05;;;32.40;59.20;;;31.17;42.89;99964.00;12348391;23;97015;-87
2023/07/15 17:47:01;;;;;;;5.53;5.03;;;32.20;59.80;;;30.97;43.22;99961.75;12346256;23;96789;-84
2023/07/15 17:52:08;;;;;;;6.00;5.05;;;31.90;60.20;;;30.69;43.77;99963.75;12369899;23;96613;-83
2023/07/15 17:57:12;;;;;;;6.57;5.30;;;31.70;60.80;;;30.45;44.41;99952.97;12368751;23;96343;-84
2023/07/15 18:02:15;;;;;;;6.68;5.78;;;31.40;61.70;;;30.13;46.35;99964.06;12344132;23;96529;-83
2023/07/15 18:07:19;;;;;;;7.07;5.55;;;31.10;62.70;;;29.76;47.21;99963.06;12344018;23;97673;-83
2023/07/15 18:12:25;;;;;;;8.27;5.78;;;30.80;63.60;;;29.40;48.46;99963.63;12367105;23;96397;-83
2023/07/15 18:17:28;;;;;;;9.77;5.85;;;30.40;64.30;;;29.03;49.14;99967.22;12368792;23;96843;-83
2023/07/15 18:22:36;;;;;;;9.02;5.97;;;30.10;65.00;;;28.70;49.97;99969.00;12367488;23;96461;-83
2023/07/15 18:27:40;;;;;;;5.95;5.35;;;29.70;65.70;;;28.50;50.12;99975.53;12367076;23;96760;-83
2023/07/15 18:32:44;;;;;;;7.10;5.53;;;29.40;66.10;;;28.30;50.83;99978.47;12343851;23;97233;-83
2023/07/15 18:37:48;;;;;;;7.85;5.55;;;29.30;66.50;;;28.13;50.85;99978.91;12364182;23;96834;-83
2023/07/15 18:42:51;;;;;;;8.63;5.13;;;29.00;66.70;;;27.94;51.02;99987.84;12343389;23;96389;-83
2023/07/15 18:47:55;;;;;;;8.73;5.57;;;28.90;66.90;;;27.78;51.79;99988.31;12367607;23;96654;-85
2023/07/15 18:52:59;;;;;;;5.97;4.70;;;28.70;67.20;;;27.60;51.50;99987.06;12366304;23;96529;-83
2023/07/15 18:58:02;;;;;;;6.53;5.22;;;28.50;67.40;;;27.45;52.19;99990.72;12340654;23;96978;-83
2023/07/15 19:03:06;;;;;;;6.57;4.80;;;28.40;67.70;;;27.26;52.40;99996.03;12365788;23;96989;-82
2023/07/15 19:08:10;;;;;;;5.20;4.55;;;28.20;67.90;;;27.15;52.89;100000.75;12345870;23;97037;-82
2023/07/15 19:13:13;;;;;;;7.03;4.50;;;28.10;68.30;;;27.07;53.02;100008.72;12366922;23;96410;-83
2023/07/15 19:18:16;;;;;;;5.90;5.30;;;28.00;68.40;;;26.98;53.43;100000.25;12320560;23;96734;-83
2023/07/15 19:23:20;;;;;;;6.03;4.93;;;27.90;69.00;;;26.87;54.58;100004.13;12365733;23;96787;-83
2023/07/15 19:28:27;;;;;;;9.68;5.88;;;27.80;69.70;;;26.67;55.84;100015.94;12343553;23;97058;-83
2023/07/15 19:33:34;;;;;;;7.90;7.15;;;27.50;70.80;;;26.47;57.41;100008.69;12344906;23;96989;-83
2023/07/15 19:38:38;;;;;;;9.45;7.47;;;27.30;72.00;;;26.28;58.44;100004.88;12341537;23;96665;-83
2023/07/15 19:43:42;;;;;;;8.30;7.50;;;27.10;73.10;;;26.06;60.06;99999.75;12366359;23;96465;-83
2023/07/15 19:48:46;;;;;;;11.05;8.10;;;26.80;74.00;;;25.85;61.13;100010.69;12340318;23;96708;-83
2023/07/15 19:53:50;;;;;;;9.02;7.72;;;26.60;75.20;;;25.63;62.88;100004.66;12367371;23;96788;-83
2023/07/15 19:58:53;;;;;;;7.72;6.95;;;26.50;76.20;;;25.41;63.80;100007.63;12319097;23;96486;-83
2023/07/15 20:03:58;;;;;;;13.70;7.32;;;26.20;76.80;;;25.23;64.63;100010.88;12365911;23;96567;-84
2023/07/15 20:09:02;;;;;;;7.90;6.70;;;26.00;77.40;;;25.07;65.33;100005.41;12319858;23;96453;-83
2023/07/15 20:14:05;;;;;;;7.90;7.20;;;25.80;77.90;;;24.86;66.47;100019.97;12341683;23;96508;-84
2023/07/15 20:19:09;;;;;;;12.30;8.55;;;25.70;78.90;;;24.61;67.65;99996.25;12341099;23;97544;-83
2023/07/15 20:24:12;;;;;;;9.45;8.55;;;25.40;79.80;;;24.49;68.96;100006.50;12344526;23;96431;-84
2023/07/15 20:29:16;;;;;;;11.35;10.13;;;25.30;80.70;;;24.36;69.63;99999.66;12317858;23;96710;-83
2023/07/15 20:34:20;;;;;;;11.52;9.98;;;25.20;81.80;;;24.29;70.03;100004.47;12364535;23;96841;-83
2023/07/15 20:39:23;;;;;;;11.63;8.98;;;25.10;82.30;;;24.21;70.95;100003.06;12340814;23;96617;-83
2023/07/15 20:44:27;;;;;;;10.35;9.07;;;25.00;82.60;;;24.14;71.61;100005.19;12342857;23;96510;-83
2023/07/15 20:49:31;;;;;;;10.05;9.02;;;24.90;83.20;;;24.01;71.84;100011.91;12366627;23;96495;-83
2023/07/15 20:54:34;;;;;;;11.63;9.57;;;24.80;83.60;;;23.96;72.08;100011.03;12322449;23;96607;-83
2023/07/15 20:59:38;;;;;;;10.98;9.80;;;24.80;84.10;;;23.92;72.29;100009.91;12368342;23;96555;-83